Time;durP1;ratioP1;P1;durP2;ratioP2;P2;SDS_P1;SDS_P2;PMS_P1;PMS_P2;Temp;Humidity;BMP_temperature;BMP_pressure;BME280_temperature;BME280_humidity;BME280_pressure;Samples;Min_cycle;Max_cycle;Signal;HPM_P1;HPM_P2
2022/06/11 00:01:55;;;;;;;3.03;1.25;;;;;;;26.87;42.98;101884.47;5012655;28;20022;-67
2022/06/11 00:04:34;;;;;;;4.20;1.25;;;;;;;26.82;43.46;101884.25;5012394;28;20034;-67
2022/06/11 00:07:03;;;;;;;5.30;1.42;;;;;;;26.75;43.20;101880.59;5015052;28;20387;-66
2022/06/11 00:09:29;;;;;;;1.70;1.15;;;;;;;26.67;43.26;101888.19;5017906;28;20024;-66
2022/06/11 00:11:55;;;;;;;4.18;1.85;;;;;;;26.60;43.43;101888.22;5018030;28;20594;-66
2022/06/11 00:14:24;;;;;;;2.53;1.38;;;;;;;26.51;43.06;101889.44;5016575;28;20049;-67
2022/06/11 00:16:50;;;;;;;4.53;1.23;;;;;;;26.41;43.36;101880.78;5016451;28;20471;-66
2022/06/11 00:19:15;;;;;;;6.88;1.33;;;;;;;26.32;43.59;101880.09;5017886;28;20492;-66
2022/06/11 00:21:43;;;;;;;7.57;1.65;;;;;;;26.25;43.23;101883.88;5016711;28;20057;-67
2022/06/11 00:24:09;;;;;;;7.22;1.13;;;;;;;26.18;43.73;101881.13;5017586;28;20030;-67
2022/06/11 00:26:35;;;;;;;3.50;1.20;;;;;;;26.13;43.69;101885.50;5017334;28;20037;-66
2022/06/11 00:29:00;;;;;;;2.50;1.70;;;;;;;26.04;43.87;101880.19;5017771;28;20026;-66
2022/06/11 00:31:26;;;;;;;3.65;1.38;;;;;;;25.97;44.03;101876.53;5017604;28;20037;-66
2022/06/11 00:33:51;;;;;;;6.70;1.17;;;;;;;25.90;44.00;101878.44;5017391;28;20021;-67
2022/06/11 00:36:18;;;;;;;5.53;1.20;;;;;;;25.84;43.79;101883.88;5017337;28;20080;-67
2022/06/11 00:38:44;;;;;;;0.88;0.82;;;;;;;25.76;43.89;101879.41;5016192;28;20022;-67
2022/06/11 00:41:10;;;;;;;7.30;1.20;;;;;;;25.70;44.25;101882.97;5015936;28;20075;-66
2022/06/11 00:43:39;;;;;;;2.05;1.05;;;;;;;25.64;44.15;101881.03;5017472;28;20059;-66
2022/06/11 00:46:32;;;;;;;4.07;1.23;;;;;;;25.59;44.62;101883.53;5017436;28;20029;-67
2022/06/11 00:48:58;;;;;;;2.17;1.17;;;;;;;25.52;44.60;101877.13;5017025;28;20026;-67
2022/06/11 00:51:24;;;;;;;3.10;1.13;;;;;;;25.46;44.73;101884.25;5017199;28;20534;-66
2022/06/11 00:53:59;;;;;;;5.93;2.08;;;;;;;25.42;44.45;101887.59;5015778;28;20108;-67
2022/06/11 00:56:31;;;;;;;6.13;1.10;;;;;;;25.37;44.72;101890.09;5015852;28;20113;-67
2022/06/11 00:58:59;;;;;;;;;;;;;;;25.34;44.52;101885.03;5016448;28;20133;-67
2022/06/11 01:01:25;;;;;;;8.60;1.48;;;;;;;25.29;44.30;101893.00;5015980;28;19935;-66
2022/06/11 01:03:52;;;;;;;2.42;1.33;;;;;;;25.25;44.32;101897.19;5016844;28;20028;-67
2022/06/11 01:06:35;;;;;;;1.95;1.40;;;;;;;25.22;44.57;101892.09;5015941;28;20021;-67
2022/06/11 01:09:06;;;;;;;1.25;1.10;;;;;;;25.17;44.88;101889.09;5017018;28;20021;-66
2022/06/11 01:12:13;;;;;;;1.58;1.17;;;;;;;25.14;45.01;101886.75;5016976;28;20041;-66
2022/06/11 01:14:56;;;;;;;1.75;1.10;;;;;;;25.10;45.25;101888.22;4979073;28;20054;-66
2022/06/11 01:17:28;;;;;;;3.22;1.38;;;;;;;25.05;44.99;101886.03;4995317;28;20041;-67
2022/06/11 01:20:11;;;;;;;3.63;1.80;;;;;;;25.02;44.95;101888.31;5008371;28;20045;-66
2022/06/11 01:23:13;;;;;;;3.25;1.25;;;;;;;24.96;44.94;101887.22;5015761;28;20346;-67
2022/06/11 01:26:02;;;;;;;9.25;1.50;;;;;;;24.87;45.57;101889.25;5016354;28;20036;-66
2022/06/11 01:29:10;;;;;;;3.90;1.77;;;;;;;24.81;44.96;101890.06;5016041;28;20466;-67
2022/06/11 01:31:54;;;;;;;4.93;1.30;;;;;;;24.74;45.45;101882.78;5016666;28;20029;-67
2022/06/11 01:34:35;;;;;;;2.75;1.05;;;;;;;24.68;45.63;101884.41;5015625;28;20025;-67
2022/06/11 01:37:08;;;;;;;3.13;1.30;;;;;;;24.62;45.38;101879.69;5016108;28;20022;-67
2022/06/11 01:39:38;;;;;;;2.78;1.67;;;;;;;24.57;44.95;101882.19;5014732;28;20026;-67
2022/06/11 01:42:16;;;;;;;3.90;1.17;;;;;;;24.52;45.45;101878.31;5016027;28;20026;-67
2022/06/11 01:44:43;;;;;;;6.45;1.20;;;;;;;24.45;45.57;101874.69;5015135;28;20109;-67
2022/06/11 01:47:11;;;;;;;3.72;1.45;;;;;;;24.41;45.50;101876.97;5016366;28;20111;-66
2022/06/11 01:49:44;;;;;;;2.63;1.55;;;;;;;24.36;45.65;101868.47;5016036;28;20033;-67
2022/06/11 01:52:46;;;;;;;4.43;1.48;;;;;;;24.32;45.25;101875.38;5016605;28;20033;-66
2022/06/11 01:55:23;;;;;;;6.20;1.77;;;;;;;24.23;45.76;101858.19;5016217;28;20099;-67
2022/06/11 01:58:10;;;;;;;3.45;1.15;;;;;;;24.18;46.21;101863.41;5016088;28;20395;-67
2022/06/11 02:00:38;;;;;;;4.10;1.50;;;;;;;24.13;45.58;101867.78;5015963;28;20054;-67
2022/06/11 02:03:46;;;;;;;2.92;1.67;;;;;;;24.09;46.24;101866.44;5015429;28;20053;-66
2022/06/11 02:06:46;;;;;;;1.65;1.25;;;;;;;24.07;46.03;101869.34;4977862;28;20030;-67
2022/06/11 02:09:41;;;;;;;1.55;1.40;;;;;;;24.07;46.72;101874.84;4976863;28;20058;-66
2022/06/11 02:12:09;;;;;;;1.67;1.20;;;;;;;24.07;46.72;101871.25;4978169;28;20031;-67
2022/06/11 02:14:44;;;;;;;4.00;2.08;;;;;;;24.06;46.13;101869.56;4994215;28;20050;-67
2022/06/11 02:17:18;;;;;;;3.13;1.55;;;;;;;24.07;46.84;101868.50;4977934;28;20038;-66
2022/06/11 02:19:48;;;;;;;3.35;1.95;;;;;;;24.07;45.93;101876.72;4993925;28;20081;-67
2022/06/11 02:22:30;;;;;;;4.80;1.58;;;;;;;24.05;46.58;101876.06;4993760;28;20037;-67
2022/06/11 02:25:38;;;;;;;3.88;1.80;;;;;;;24.00;46.45;101881.28;4978093;28;20062;-66
2022/06/11 02:28:09;;;;;;;5.90;1.83;;;;;;;23.95;46.10;101881.00;4982588;28;20039;-66
2022/06/11 02:30:36;;;;;;;1.50;1.15;;;;;;;23.92;46.29;101878.66;4993834;28;20039;-66
2022/06/11 02:33:01;;;;;;;1.98;1.45;;;;;;;23.90;46.25;101880.75;4977765;28;20141;-66
2022/06/11 02:35:49;;;;;;;3.28;1.50;;;;;;;23.85;46.65;101869.47;4994039;28;20045;-66
2022/06/11 02:38:18;;;;;;;5.57;1.52;;;;;;;23.80;46.18;101871.94;5015798;28;20034;-66
2022/06/11 02:40:50;;;;;;;1.90;1.63;;;;;;;23.76;46.24;101868.72;4997931;28;20426;-67
2022/06/11 02:43:16;;;;;;;5.97;2.55;;;;;;;23.72;46.56;101871.03;5015509;28;20022;-66
2022/06/11 02:45:41;;;;;;;5.03;1.50;;;;;;;23.70;46.15;101878.56;5013929;28;20060;-67
2022/06/11 02:48:07;;;;;;;2.38;1.65;;;;;;;23.68;47.13;101886.09;5013736;28;20478;-66
2022/06/11 02:50:34;;;;;;;3.80;1.55;;;;;;;23.65;47.38;101881.00;5015091;28;20026;-68
2022/06/11 02:53:04;;;;;;;3.40;1.38;;;;;;;23.63;47.16;101887.72;5015298;28;20109;-67
2022/06/11 02:55:30;;;;;;;3.58;1.60;;;;;;;23.63;46.91;101880.38;5014465;28;20018;-67
2022/06/11 02:57:56;;;;;;;3.30;1.73;;;;;;;23.61;47.10;101889.81;5015234;28;20032;-67
2022/06/11 03:00:26;;;;;;;4.28;1.70;;;;;;;23.57;47.53;101883.00;5015085;28;20057;-67
2022/06/11 03:02:51;;;;;;;1.92;1.30;;;;;;;23.57;47.00;101889.31;5015186;28;20113;-67
2022/06/11 03:05:20;;;;;;;2.67;1.80;;;;;;;23.55;47.36;101885.06;5014682;28;20109;-67
2022/06/11 03:07:47;;;;;;;3.60;1.65;;;;;;;23.54;47.65;101889.69;5015162;28;20030;-66
2022/06/11 03:10:15;;;;;;;1.63;1.52;;;;;;;23.53;47.05;101892.63;5014652;28;20456;-66
2022/06/11 03:12:40;;;;;;;1.20;1.10;;;;;;;23.52;47.77;101896.38;5014589;28;20021;-67
2022/06/11 03:15:06;;;;;;;1.50;1.30;;;;;;;23.53;47.32;101888.00;5015069;28;20085;-66
2022/06/11 03:17:32;;;;;;;3.85;1.65;;;;;;;23.55;47.43;101896.88;5014688;28;20084;-67
2022/06/11 03:19:57;;;;;;;6.18;1.85;;;;;;;23.55;47.10;101899.59;5015060;28;20423;-66
2022/06/11 03:22:23;;;;;;;14.35;3.25;;;;;;;23.56;48.04;101893.06;5013644;28;20022;-66
2022/06/11 03:24:48;;;;;;;4.03;1.80;;;;;;;23.58;47.13;101896.50;5014783;28;20087;-66
2022/06/11 03:27:15;;;;;;;3.58;2.17;;;;;;;23.59;48.15;101906.38;5014726;28;20080;-67
2022/06/11 03:29:41;;;;;;;2.05;1.63;;;;;;;23.61;48.02;101904.34;5015043;28;20470;-67
2022/06/11 03:32:07;;;;;;;3.97;2.28;;;;;;;23.62;48.20;101903.28;5014873;28;20046;-67
2022/06/11 03:34:32;;;;;;;9.65;1.52;;;;;;;23.62;47.78;101902.41;5014501;28;20021;-67
2022/06/11 03:36:57;;;;;;;6.35;1.67;;;;;;;23.64;47.65;101906.69;5014570;28;20410;-67
2022/06/11 03:39:23;;;;;;;9.25;1.88;;;;;;;23.64;47.37;101906.69;5014444;28;20027;-67
2022/06/11 03:41:50;;;;;;;2.80;1.40;;;;;;;23.66;48.12;101907.34;5014410;28;20026;-67
2022/06/11 03:44:15;;;;;;;8.05;2.05;;;;;;;23.70;48.42;101905.91;5018724;28;20022;-67
2022/06/11 03:46:41;;;;;;;6.55;1.70;;;;;;;23.74;48.50;101915.47;5018574;28;20030;-68
2022/06/11 03:49:07;;;;;;;3.97;1.90;;;;;;;23.77;48.20;101917.81;5018264;28;20053;-65
2022/06/11 03:51:32;;;;;;;3.00;1.67;;;;;;;23.81;47.62;101918.31;5018738;28;20040;-66
2022/06/11 03:53:58;;;;;;;2.88;1.63;;;;;;;23.85;47.56;101913.28;5018732;28;20413;-67
2022/06/11 03:56:25;;;;;;;3.47;2.33;;;;;;;23.89;47.79;101920.09;5017850;28;20391;-67
2022/06/11 03:58:51;;;;;;;3.38;1.83;;;;;;;23.90;48.08;101911.66;5018047;28;20492;-66
2022/06/11 04:01:19;;;;;;;3.03;1.40;;;;;;;23.93;47.90;101926.88;5018564;28;20108;-66
2022/06/11 04:03:59;;;;;;;4.07;1.77;;;;;;;23.97;48.50;101917.25;5017260;28;20045;-67
2022/06/11 04:06:31;;;;;;;3.38;1.63;;;;;;;24.00;47.84;101927.81;5018117;28;20049;-66
2022/06/11 04:08:57;;;;;;;2.70;1.92;;;;;;;24.03;48.48;101921.97;5018647;28;20423;-66
2022/06/11 04:11:22;;;;;;;3.53;1.90;;;;;;;24.08;48.57;101924.97;5018085;28;20084;-66
2022/06/11 04:13:50;;;;;;;3.55;1.90;;;;;;;24.13;48.11;101919.81;5018157;28;20034;-66
2022/06/11 04:16:21;;;;;;;7.72;2.03;;;;;;;24.20;48.49;101931.72;5018746;28;20026;-68
2022/06/11 04:18:49;;;;;;;5.03;1.80;;;;;;;24.25;48.34;101931.97;5016761;28;20025;-67
2022/06/11 04:21:15;;;;;;;3.70;1.80;;;;;;;24.30;48.66;101929.50;5017390;28;20049;-66
2022/06/11 04:23:44;;;;;;;2.85;1.98;;;;;;;24.36;48.82;101927.88;5018137;28;20060;-67
2022/06/11 04:26:13;;;;;;;7.63;2.42;;;;;;;24.40;49.04;101932.78;5018147;28;20034;-67
2022/06/11 04:28:40;;;;;;;3.92;2.33;;;;;;;24.44;48.42;101928.63;5017926;28;20033;-67
2022/06/11 04:31:06;;;;;;;4.55;2.67;;;;;;;24.47;48.49;101927.38;5017690;28;20021;-69
2022/06/11 04:33:32;;;;;;;6.57;2.20;;;;;;;24.55;48.89;101944.56;5000182;28;20034;-67
2022/06/11 04:35:58;;;;;;;4.80;2.03;;;;;;;24.60;48.93;101939.34;5017853;28;20026;-67
2022/06/11 04:38:23;;;;;;;14.55;2.60;;;;;;;24.64;48.73;101937.94;5017709;28;20034;-67
2022/06/11 04:40:49;;;;;;;4.72;1.98;;;;;;;24.70;48.72;101942.63;5017942;28;20464;-67
2022/06/11 04:43:15;;;;;;;3.15;2.10;;;;;;;24.76;48.90;101941.00;5017982;28;20099;-66
2022/06/11 04:45:40;;;;;;;5.10;2.78;;;;;;;24.81;47.80;101953.13;5017579;28;20387;-66
2022/06/11 04:48:06;;;;;;;7.38;2.53;;;;;;;24.85;48.07;101943.44;5016823;28;20073;-66
2022/06/11 04:50:32;;;;;;;5.57;1.90;;;;;;;24.91;48.84;101944.53;5017741;28;20037;-66
2022/06/11 04:52:57;;;;;;;3.83;2.08;;;;;;;24.96;48.53;101942.06;5016180;28;20502;-66
2022/06/11 04:55:22;;;;;;;1.83;1.70;;;;;;;25.01;48.53;101947.84;5016914;28;20537;-66
2022/06/11 04:57:48;;;;;;;4.97;2.63;;;;;;;25.07;48.29;101938.78;5017262;28;20534;-66
2022/06/11 05:00:18;;;;;;;6.88;2.10;;;;;;;25.11;48.03;101933.78;5017347;28;20058;-67
2022/06/11 05:02:44;;;;;;;3.67;1.98;;;;;;;25.18;48.32;101951.16;5017588;28;20026;-67
2022/06/11 05:05:10;;;;;;;7.22;2.03;;;;;;;25.21;48.09;101951.59;5016515;28;20383;-66
2022/06/11 05:07:35;;;;;;;11.00;3.20;;;;;;;25.26;48.15;101959.25;5016740;28;20369;-67
2022/06/11 05:10:01;;;;;;;6.50;2.05;;;;;;;25.28;47.98;101954.41;5017216;28;20042;-67
2022/06/11 05:12:26;;;;;;;6.13;1.85;;;;;;;25.32;48.16;101953.78;5015728;28;20022;-67
2022/06/11 05:14:51;;;;;;;6.35;2.22;;;;;;;25.39;47.94;101959.34;5017114;28;20034;-67
2022/06/11 05:17:17;;;;;;;4.22;1.77;;;;;;;25.43;48.19;101955.16;5016180;28;20026;-67
2022/06/11 05:19:43;;;;;;;5.30;2.50;;;;;;;25.47;48.06;101956.47;5016801;28;20486;-67
2022/06/11 05:22:08;;;;;;;3.88;1.63;;;;;;;25.51;48.08;101960.53;5016643;28;20099;-67
2022/06/11 05:24:33;;;;;;;3.95;1.90;;;;;;;25.54;48.23;101951.91;5016825;28;20104;-66
2022/06/11 05:27:21;;;;;;;3.17;2.00;;;;;;;25.58;48.00;101960.56;5016791;28;20037;-66
2022/06/11 05:29:48;;;;;;;3.30;1.92;;;;;;;25.61;47.76;101947.28;5016096;28;20065;-67
2022/06/11 05:32:16;;;;;;;3.40;2.05;;;;;;;25.65;47.91;101954.09;5016533;28;20022;-66
2022/06/11 05:34:42;;;;;;;4.28;2.03;;;;;;;25.69;47.67;101957.25;5016480;28;20254;-67
2022/06/11 05:37:07;;;;;;;4.15;1.90;;;;;;;25.74;47.96;101952.03;5016300;28;20034;-66
2022/06/11 05:39:33;;;;;;;9.80;1.65;;;;;;;25.81;47.69;101958.41;5016433;28;20033;-66
2022/06/11 05:41:58;;;;;;;4.57;2.22;;;;;;;25.85;47.75;101954.22;5015979;28;20022;-67
2022/06/11 05:44:24;;;;;;;3.83;1.77;;;;;;;25.89;47.75;101961.84;5016091;28;20361;-66
2022/06/11 05:46:50;;;;;;;5.47;1.83;;;;;;;25.93;47.91;101963.16;5015916;28;20030;-67
2022/06/11 05:49:19;;;;;;;5.65;2.10;;;;;;;25.98;47.05;101960.66;5014476;28;20097;-67
2022/06/11 05:51:49;;;;;;;2.50;1.95;;;;;;;26.01;47.76;101954.75;5015444;28;20116;-66
2022/06/11 05:54:18;;;;;;;8.48;2.47;;;;;;;26.06;47.78;101959.63;5014603;28;20036;-66
2022/06/11 05:56:44;;;;;;;2.63;2.42;;;;;;;26.10;47.55;101960.06;5016032;28;20036;-67
2022/06/11 05:59:14;;;;;;;4.57;2.45;;;;;;;26.15;47.23;101961.19;5016082;28;20046;-67
2022/06/11 06:01:41;;;;;;;6.55;2.55;;;;;;;26.20;47.22;101955.06;5014779;28;20026;-66
2022/06/11 06:04:07;;;;;;;5.13;2.28;;;;;;;26.23;47.48;101958.25;5015904;28;20037;-67
2022/06/11 06:06:33;;;;;;;5.03;2.15;;;;;;;26.28;46.95;101966.75;5014633;28;20026;-67
2022/06/11 06:08:58;;;;;;;5.65;2.58;;;;;;;26.34;47.44;101959.56;5016134;28;20424;-66
2022/06/11 06:11:25;;;;;;;5.88;2.70;;;;;;;26.40;47.13;101961.50;5015417;28;20029;-66
2022/06/11 06:13:52;;;;;;;3.15;1.80;;;;;;;26.47;46.98;101965.13;5016144;28;20037;-66
2022/06/11 06:16:20;;;;;;;2.20;1.60;;;;;;;26.52;47.14;101971.69;5015670;28;20022;-67
2022/06/11 06:18:47;;;;;;;3.92;1.80;;;;;;;26.58;47.04;101961.78;5015423;28;20045;-67
2022/06/11 06:21:13;;;;;;;8.07;2.17;;;;;;;26.65;47.29;101978.31;5015382;28;20026;-67
2022/06/11 06:23:38;;;;;;;5.60;2.15;;;;;;;26.72;46.64;101974.50;5015357;28;20064;-67
2022/06/11 06:26:04;;;;;;;3.70;1.80;;;;;;;26.82;46.05;101986.00;5015140;28;20065;-67
2022/06/11 06:28:31;;;;;;;3.42;2.10;;;;;;;27.04;46.30;101982.03;5015144;28;20422;-67
2022/06/11 06:30:58;;;;;;;5.13;1.55;;;;;;;27.21;45.63;101982.47;5015101;28;20033;-66
2022/06/11 06:33:24;;;;;;;5.38;1.50;;;;;;;27.39;45.58;101981.84;5015545;28;20522;-67
2022/06/11 06:35:50;;;;;;;3.30;1.73;;;;;;;27.74;44.96;101981.44;5015381;28;20033;-67
2022/06/11 06:38:16;;;;;;;3.47;1.92;;;;;;;27.77;44.75;101982.06;5015527;28;20022;-67
2022/06/11 06:40:42;;;;;;;5.55;2.15;;;;;;;27.81;44.61;101988.81;5014069;28;20089;-67
2022/06/11 06:43:08;;;;;;;5.13;1.45;;;;;;;27.80;44.53;101985.25;5015260;28;20022;-67
2022/06/11 06:45:34;;;;;;;4.45;1.48;;;;;;;27.88;44.66;101993.28;5015348;28;20395;-66
2022/06/11 06:47:59;;;;;;;2.67;1.58;;;;;;;27.87;44.20;101990.72;5014812;28;20030;-67
2022/06/11 06:50:24;;;;;;;3.75;1.65;;;;;;;27.84;45.00;101991.16;5015104;28;20033;-66
2022/06/11 06:52:50;;;;;;;1.27;1.17;;;;;;;27.84;44.22;101992.00;5015142;28;20029;-67
2022/06/11 06:55:15;;;;;;;3.42;1.10;;;;;;;27.90;44.65;102002.19;5014739;28;20164;-66
2022/06/11 06:57:41;;;;;;;2.95;1.40;;;;;;;27.97;44.57;101997.50;5015307;28;20025;-66
2022/06/11 07:00:07;;;;;;;2.25;1.80;;;;;;;27.99;43.75;101994.53;5014940;28;20100;-67
2022/06/11 07:02:33;;;;;;;5.60;1.40;;;;;;;27.99;44.59;101995.38;5014864;28;20029;-67
2022/06/11 07:04:59;;;;;;;2.97;1.48;;;;;;;27.98;43.96;101995.59;5014541;28;20471;-67
2022/06/11 07:07:25;;;;;;;4.68;1.27;;;;;;;28.00;44.50;101997.06;5014647;28;20483;-67
2022/06/11 07:09:55;;;;;;;3.05;1.50;;;;;;;28.04;44.68;102003.03;5013863;28;20040;-67
2022/06/11 07:12:20;;;;;;;2.65;1.55;;;;;;;28.05;43.44;102000.06;5014755;28;20086;-67
2022/06/11 07:14:46;;;;;;;2.00;1.23;;;;;;;28.03;43.85;101996.66;5014876;28;20110;-66
2022/06/11 07:17:12;;;;;;;3.92;1.50;;;;;;;28.08;43.74;102005.16;5013832;28;20040;-67
2022/06/11 07:19:51;;;;;;;4.68;1.52;;;;;;;28.27;43.58;102004.25;5013536;28;20026;-67
2022/06/11 07:22:24;;;;;;;4.03;1.55;;;;;;;28.42;43.56;102006.72;5014930;28;20109;-67
2022/06/11 07:24:49;;;;;;;4.97;1.50;;;;;;;28.53;42.66;102002.47;5013176;28;20025;-67
2022/06/11 07:27:18;;;;;;;4.88;1.23;;;;;;;28.73;42.23;102008.72;5013749;28;20034;-69
2022/06/11 07:29:46;;;;;;;4.10;1.27;;;;;;;29.06;42.30;102003.03;5014797;28;20025;-67
2022/06/11 07:32:15;;;;;;;0.73;0.70;;;;;;;29.28;42.28;102005.25;4997215;28;20124;-66
2022/06/11 07:34:41;;;;;;;5.22;1.52;;;;;;;29.21;41.45;102007.19;5014868;28;20057;-67
2022/06/11 07:37:06;;;;;;;3.50;1.25;;;;;;;29.12;41.92;102002.97;5014948;28;20021;-66
2022/06/11 07:39:33;;;;;;;3.97;1.33;;;;;;;29.29;41.67;102012.44;5013552;28;20033;-67
2022/06/11 07:41:58;;;;;;;1.83;1.02;;;;;;;29.33;41.02;102010.94;5013293;28;20108;-67
2022/06/11 07:44:23;;;;;;;2.05;0.90;;;;;;;29.31;41.79;102013.06;5012799;28;20036;-67
2022/06/11 07:46:49;;;;;;;3.30;0.85;;;;;;;29.42;41.30;102017.06;5014199;28;20022;-67
2022/06/11 07:49:14;;;;;;;4.60;1.25;;;;;;;29.47;40.97;102021.88;5014405;28;20036;-65
2022/06/11 07:51:40;;;;;;;2.38;1.60;;;;;;;29.49;41.49;102014.22;5014626;28;20022;-67
2022/06/11 07:54:05;;;;;;;4.82;1.00;;;;;;;29.50;41.76;102021.44;5014160;28;20034;-66
2022/06/11 07:56:30;;;;;;;2.33;1.08;;;;;;;29.55;41.37;102022.47;5014134;28;20030;-67
2022/06/11 07:58:56;;;;;;;3.58;0.98;;;;;;;29.59;40.34;102020.09;5013814;28;20049;-66
2022/06/11 08:01:21;;;;;;;2.53;0.98;;;;;;;29.58;40.64;102021.16;5014054;28;20030;-67
2022/06/11 08:03:46;;;;;;;5.75;0.95;;;;;;;29.57;41.32;102022.22;5014177;28;20076;-66
2022/06/11 08:06:12;;;;;;;1.08;0.80;;;;;;;29.63;40.54;102022.16;5014568;28;20022;-67
2022/06/11 08:08:38;;;;;;;5.82;1.40;;;;;;;29.73;40.83;102027.19;5013862;28;20390;-66
2022/06/11 08:11:05;;;;;;;3.33;1.00;;;;;;;29.72;40.66;102020.81;5013995;28;20040;-67
2022/06/11 08:13:30;;;;;;;2.97;1.05;;;;;;;29.75;40.71;102019.53;5013879;28;20060;-67
2022/06/11 08:15:57;;;;;;;1.90;0.98;;;;;;;29.86;40.11;102014.13;5013428;28;20030;-66
2022/06/11 08:18:24;;;;;;;6.20;0.95;;;;;;;29.90;40.12;102022.81;5013644;28;20021;-66
2022/06/11 08:20:51;;;;;;;1.92;0.85;;;;;;;29.98;40.39;102019.75;5013851;28;20026;-66
2022/06/11 08:23:17;;;;;;;5.18;1.25;;;;;;;30.15;40.33;102025.53;5013639;28;20022;-66
2022/06/11 08:25:43;;;;;;;2.60;0.90;;;;;;;30.18;39.81;102025.91;5012590;28;20026;-67
2022/06/11 08:28:11;;;;;;;3.97;1.02;;;;;;;30.11;39.88;102025.16;5014715;28;20391;-66
2022/06/11 08:30:36;;;;;;;5.45;1.52;;;;;;;30.04;40.29;102032.66;5017454;28;20028;-66
2022/06/11 08:33:03;;;;;;;2.58;0.90;;;;;;;30.04;40.46;102018.00;5017033;28;20021;-66
2022/06/11 08:35:30;;;;;;;1.45;1.10;;;;;;;30.02;39.76;102029.28;5016818;28;20498;-67
2022/06/11 08:37:55;;;;;;;7.47;1.17;;;;;;;29.92;39.87;102020.66;5017120;28;20045;-66
2022/06/11 08:40:28;;;;;;;4.78;1.10;;;;;;;29.94;39.94;102022.13;5017295;28;20107;-66
2022/06/11 08:43:01;;;;;;;;;;;;;;;30.51;39.24;102033.88;5016396;28;20032;-67
2022/06/11 08:45:44;;;;;;;2.50;1.08;;;;;;;31.16;38.53;102025.78;5017230;28;19909;-67
2022/06/11 08:48:14;;;;;;;2.33;0.88;;;;;;;31.65;38.40;102028.19;5015655;28;20571;-67
2022/06/11 08:50:45;;;;;;;4.65;0.65;;;;;;;31.57;38.62;102026.63;5015543;28;20034;-67
2022/06/11 08:53:11;;;;;;;6.53;1.30;;;;;;;31.66;38.63;102024.31;5016728;28;20026;-66
2022/06/11 08:55:38;;;;;;;2.63;0.70;;;;;;;31.68;37.89;102020.25;5016776;28;20044;-66
2022/06/11 08:58:15;;;;;;;1.83;0.77;;;;;;;31.56;38.56;102024.94;5015547;28;20033;-66
2022/06/11 09:01:06;;;;;;;6.93;1.13;;;;;;;31.43;38.30;102030.66;5016370;28;20137;-65
2022/06/11 09:03:47;;;;;;;3.58;0.90;;;;;;;31.27;38.25;102028.56;5015687;28;20030;-66
2022/06/11 09:06:40;;;;;;;3.03;0.90;;;;;;;31.19;38.28;102026.13;5016536;28;20458;-66
2022/06/11 09:09:33;;;;;;;5.63;1.08;;;;;;;31.19;38.08;102028.91;5016303;28;20080;-66
2022/06/11 09:12:23;;;;;;;3.10;1.08;;;;;;;31.21;37.94;102026.75;5016520;28;20550;-66
2022/06/11 09:15:09;;;;;;;4.90;0.93;;;;;;;31.36;37.40;102035.47;5015186;28;20108;-68
2022/06/11 09:17:56;;;;;;;6.47;0.98;;;;;;;31.42;37.06;102028.97;5015095;28;20079;-67
2022/06/11 09:20:33;;;;;;;2.50;0.70;;;;;;;31.47;37.22;102026.34;5019247;28;20025;-67
2022/06/11 09:23:02;;;;;;;1.73;0.57;;;;;;;31.54;36.55;102032.66;5019889;28;20383;-67
2022/06/11 09:25:55;;;;;;;4.22;0.88;;;;;;;31.46;36.45;102029.34;5016979;28;20547;-67
2022/06/11 09:28:45;;;;;;;1.42;0.70;;;;;;;31.39;36.55;102032.22;5016198;28;20026;-67
2022/06/11 09:31:23;;;;;;;1.40;0.70;;;;;;;31.39;36.48;102032.22;5015990;28;20030;-66
2022/06/11 09:33:56;;;;;;;1.50;0.65;;;;;;;31.46;35.74;102029.34;5014562;28;20113;-66
2022/06/11 09:36:37;;;;;;;0.98;0.63;;;;;;;31.49;35.66;102035.28;5015992;28;20057;-67
2022/06/11 09:39:41;;;;;;;4.32;0.95;;;;;;;31.88;34.72;102039.31;5015582;28;20033;-67
2022/06/11 09:42:32;;;;;;;5.03;0.93;;;;;;;31.92;34.48;102042.44;5014474;28;20025;-67
2022/06/11 09:45:13;;;;;;;6.65;0.85;;;;;;;32.35;34.83;102034.59;5014623;28;20018;-67
2022/06/11 09:47:41;;;;;;;5.45;1.38;;;;;;;32.80;34.41;102032.78;5016930;28;20480;-67
2022/06/11 09:50:18;;;;;;;8.38;1.23;;;;;;;33.33;33.04;102037.19;5015822;28;20438;-67
2022/06/11 09:52:53;;;;;;;4.50;1.35;;;;;;;33.94;32.54;102034.34;5015895;28;20080;-67
2022/06/11 09:55:27;;;;;;;4.00;0.93;;;;;;;33.95;33.30;102041.59;5014846;28;20026;-67
2022/06/11 09:58:12;;;;;;;4.40;0.73;;;;;;;34.00;32.52;102040.00;4998444;28;20022;-67
2022/06/11 10:00:48;;;;;;;3.22;0.50;;;;;;;33.82;32.33;102039.16;5014492;28;20407;-67
2022/06/11 10:03:30;;;;;;;5.95;1.05;;;;;;;33.94;32.42;102039.91;4997964;28;20021;-67
2022/06/11 10:06:07;;;;;;;1999.90;999.90;;;;;;;34.89;30.99;102031.22;5014380;28;20104;-67
2022/06/11 10:08:55;;;;;;;4.05;1.30;;;;;;;35.24;30.85;102032.72;5015312;28;20498;-67
2022/06/11 10:11:24;;;;;;;4.93;1.23;;;;;;;35.14;31.06;102038.19;5014469;28;20022;-67
2022/06/11 10:14:29;;;;;;;2.33;1.27;;;;;;;35.01;31.12;102034.69;5013991;28;20123;-68
2022/06/11 10:17:12;;;;;;;4.50;0.68;;;;;;;34.58;31.21;102045.88;5014715;28;20104;-66
2022/06/11 10:19:46;;;;;;;2.67;0.80;;;;;;;34.26;31.96;102044.84;5015345;28;20427;-67
2022/06/11 10:22:19;;;;;;;4.63;1.00;;;;;;;33.98;31.68;102043.84;5015306;28;20061;-67
2022/06/11 10:25:15;;;;;;;3.58;0.70;;;;;;;33.86;32.11;102045.91;5013994;28;20030;-66
2022/06/11 10:27:46;;;;;;;6.22;1.10;;;;;;;34.12;31.57;102043.53;5015307;28;20026;-66
2022/06/11 10:30:23;;;;;;;8.00;1.48;;;;;;;34.37;30.41;102038.31;5013890;28;20026;-68
2022/06/11 10:32:48;;;;;;;7.07;1.55;;;;;;;35.18;30.47;102042.16;5013908;28;20112;-67
2022/06/11 10:35:21;;;;;;;10.50;1.48;;;;;;;35.62;29.60;102038.94;5014225;28;20050;-67
2022/06/11 10:37:56;;;;;;;3.83;1.20;;;;;;;36.13;29.17;102042.97;5015547;28;20178;-67
2022/06/11 10:40:45;;;;;;;4.55;1.42;;;;;;;36.63;29.16;102027.66;5015214;28;20029;-67
2022/06/11 10:43:18;;;;;;;3.75;1.98;;;;;;;37.05;28.72;102019.94;5012215;28;20083;-66
2022/06/11 10:45:46;;;;;;;4.20;1.33;;;;;;;37.05;28.92;102019.94;5013749;28;20029;-67
2022/06/11 10:48:19;;;;;;;6.20;1.65;;;;;;;37.60;28.03;102023.94;5015122;28;20057;-67
2022/06/11 10:50:45;;;;;;;5.03;4.57;;;;;;;38.08;27.60;102014.91;5013723;28;20471;-67
2022/06/11 10:53:39;;;;;;;3.92;2.50;;;;;;;38.49;27.12;102012.88;5014886;28;20104;-66
2022/06/11 10:56:11;;;;;;;4.72;2.17;;;;;;;38.81;26.46;102013.28;5014769;28;20066;-68
2022/06/11 10:58:38;;;;;;;;;;;;;;;38.87;27.95;102005.66;5015841;28;20091;-66
2022/06/11 11:01:08;;;;;;;6.38;1.20;;;;;;;39.08;27.46;102007.22;5014110;28;19921;-67
2022/06/11 11:03:41;;;;;;;4.28;1.63;;;;;;;39.35;26.48;101998.34;5013338;28;20022;-67
2022/06/11 11:06:08;;;;;;;3.67;1.30;;;;;;;39.63;27.19;102003.16;5013601;28;20373;-67
2022/06/11 11:08:36;;;;;;;3.53;0.95;;;;;;;39.86;26.29;102002.41;5014835;28;20049;-68
2022/06/11 11:11:01;;;;;;;3.25;1.10;;;;;;;40.03;26.88;102001.94;5015250;28;20025;-66
2022/06/11 11:13:44;;;;;;;4.72;1.23;;;;;;;40.28;26.44;101998.84;5014680;28;20380;-67
2022/06/11 11:16:15;;;;;;;3.50;1.67;;;;;;;40.35;25.83;101990.03;5014308;28;20033;-67
2022/06/11 11:18:41;;;;;;;2.47;0.80;;;;;;;40.54;26.19;101994.59;5014436;28;20018;-67
2022/06/11 11:21:15;;;;;;;2.80;1.05;;;;;;;40.67;25.39;101996.69;5014255;28;20028;-66
2022/06/11 11:23:41;;;;;;;2.92;0.70;;;;;;;40.89;25.29;101998.88;5014384;28;20053;-68
2022/06/11 11:26:21;;;;;;;1.92;0.73;;;;;;;41.08;24.85;101998.88;5012905;28;20057;-67
2022/06/11 11:29:04;;;;;;;4.93;1.02;;;;;;;41.19;24.82;101991.97;5014406;28;20021;-67
2022/06/11 11:31:42;;;;;;;2.42;0.50;;;;;;;41.24;24.31;101989.06;5014397;28;20105;-68
2022/06/11 11:34:48;;;;;;;3.25;0.77;;;;;;;41.27;24.53;101985.63;5013342;28;20072;-67
2022/06/11 11:37:13;;;;;;;2.72;0.80;;;;;;;41.39;24.40;101979.56;5013171;28;20048;-67
2022/06/11 11:39:48;;;;;;;2.37;0.80;;;;;;;41.49;23.96;101988.66;5014012;28;20387;-67
2022/06/11 11:42:19;;;;;;;1.70;0.70;;;;;;;41.57;23.86;101982.31;5013707;28;20745;-67
2022/06/11 11:44:50;;;;;;;2.15;0.90;;;;;;;41.67;23.86;101984.13;4993354;28;20038;-67
2022/06/11 11:47:24;;;;;;;2.13;0.55;;;;;;;41.77;23.79;101976.34;4994608;28;20488;-67